sensor_id;sensor_type;location;lat;lon;timestamp;pressure;altitude;pressure_sealevel;temperature;humidity
9257;BME280;4665;51.368;6.782;2023-04-27T00:02:21;101688.50;;;4.57;100.00
9257;BME280;4665;51.368;6.782;2023-04-27T00:04:47;101681.72;;;4.53;100.00
9257;BME280;4665;51.368;6.782;2023-04-27T00:07:12;101684.72;;;4.47;100.00
9257;BME280;4665;51.368;6.782;2023-04-27T00:09:38;101691.97;;;4.43;100.00
9257;BME280;4665;51.368;6.782;2023-04-27T00:12:03;101686.13;;;4.38;100.00
9257;BME280;4665;51.368;6.782;2023-04-27T00:14:29;101685.56;;;4.33;100.00
9257;BME280;4665;51.368;6.782;2023-04-27T00:16:54;101698.34;;;4.25;100.00
9257;BME280;4665;51.368;6.782;2023-04-27T00:19:20;101693.25;;;4.21;100.00
9257;BME280;4665;51.368;6.782;2023-04-27T00:21:47;101699.91;;;4.13;100.00
9257;BME280;4665;51.368;6.782;2023-04-27T00:24:12;101691.63;;;4.05;100.00
9257;BME280;4665;51.368;6.782;2023-04-27T00:26:38;101695.28;;;4.02;100.00
9257;BME280;4665;51.368;6.782;2023-04-27T00:29:03;101694.88;;;3.94;100.00
9257;BME280;4665;51.368;6.782;2023-04-27T00:31:28;101695.97;;;3.90;100.00
9257;BME280;4665;51.368;6.782;2023-04-27T00:33:54;101698.47;;;3.93;100.00
9257;BME280;4665;51.368;6.782;2023-04-27T00:36:19;101689.03;;;3.89;100.00
9257;BME280;4665;51.368;6.782;2023-04-27T00:38:45;101703.75;;;3.93;100.00
9257;BME280;4665;51.368;6.782;2023-04-27T00:41:10;101699.50;;;3.90;100.00
9257;BME280;4665;51.368;6.782;2023-04-27T00:43:43;101705.88;;;3.86;100.00
9257;BME280;4665;51.368;6.782;2023-04-27T00:46:11;101708.59;;;3.85;100.00
9257;BME280;4665;51.368;6.782;2023-04-27T00:48:37;101704.44;;;3.80;100.00
9257;BME280;4665;51.368;6.782;2023-04-27T00:51:04;101693.50;;;3.72;100.00
9257;BME280;4665;51.368;6.782;2023-04-27T00:53:30;101707.00;;;3.66;100.00
9257;BME280;4665;51.368;6.782;2023-04-27T00:55:56;101700.06;;;3.65;100.00
9257;BME280;4665;51.368;6.782;2023-04-27T00:58:22;101706.34;;;3.63;100.00
9257;BME280;4665;51.368;6.782;2023-04-27T01:00:48;101706.44;;;3.61;100.00
9257;BME280;4665;51.368;6.782;2023-04-27T01:03:14;101705.00;;;3.55;100.00
9257;BME280;4665;51.368;6.782;2023-04-27T01:05:40;101702.44;;;3.54;100.00
9257;BME280;4665;51.368;6.782;2023-04-27T01:08:06;101704.38;;;3.50;100.00
9257;BME280;4665;51.368;6.782;2023-04-27T01:10:31;101702.78;;;3.48;100.00
9257;BME280;4665;51.368;6.782;2023-04-27T01:12:57;101697.00;;;3.41;100.00
9257;BME280;4665;51.368;6.782;2023-04-27T01:15:22;101704.16;;;3.39;100.00
9257;BME280;4665;51.368;6.782;2023-04-27T01:17:47;101705.53;;;3.30;100.00
9257;BME280;4665;51.368;6.782;2023-04-27T01:20:13;101698.78;;;3.25;100.00
9257;BME280;4665;51.368;6.782;2023-04-27T01:22:41;101702.53;;;3.21;100.00
9257;BME280;4665;51.368;6.782;2023-04-27T01:25:07;101709.69;;;3.19;100.00
9257;BME280;4665;51.368;6.782;2023-04-27T01:27:33;101717.47;;;3.20;100.00
9257;BME280;4665;51.368;6.782;2023-04-27T01:29:58;101722.00;;;3.18;100.00
9257;BME280;4665;51.368;6.782;2023-04-27T01:32:23;101719.50;;;3.15;100.00
9257;BME280;4665;51.368;6.782;2023-04-27T01:34:49;101720.47;;;3.14;100.00
9257;BME280;4665;51.368;6.782;2023-04-27T01:37:14;101724.97;;;3.12;100.00
9257;BME280;4665;51.368;6.782;2023-04-27T01:39:40;101723.50;;;3.06;100.00
9257;BME280;4665;51.368;6.782;2023-04-27T01:42:06;101720.25;;;3.01;100.00
9257;BME280;4665;51.368;6.782;2023-04-27T01:44:31;101726.72;;;2.95;100.00
9257;BME280;4665;51.368;6.782;2023-04-27T01:46:56;101722.72;;;2.88;100.00
9257;BME280;4665;51.368;6.782;2023-04-27T01:49:22;101720.41;;;2.82;100.00
9257;BME280;4665;51.368;6.782;2023-04-27T01:51:47;101725.75;;;2.81;100.00
9257;BME280;4665;51.368;6.782;2023-04-27T01:54:13;101731.09;;;2.79;100.00
9257;BME280;4665;51.368;6.782;2023-04-27T01:56:38;101732.97;;;2.77;100.00
9257;BME280;4665;51.368;6.782;2023-04-27T01:59:04;101731.41;;;2.73;100.00
9257;BME280;4665;51.368;6.782;2023-04-27T02:01:29;101733.38;;;2.69;100.00
9257;BME280;4665;51.368;6.782;2023-04-27T02:03:55;101738.47;;;2.72;100.00
9257;BME280;4665;51.368;6.782;2023-04-27T02:06:21;101744.56;;;2.73;100.00
9257;BME280;4665;51.368;6.782;2023-04-27T02:08:46;101744.66;;;2.71;100.00
9257;BME280;4665;51.368;6.782;2023-04-27T02:11:12;101739.56;;;2.68;100.00
9257;BME280;4665;51.368;6.782;2023-04-27T02:13:37;101746.53;;;2.69;100.00
9257;BME280;4665;51.368;6.782;2023-04-27T02:16:03;101738.72;;;2.68;100.00
9257;BME280;4665;51.368;6.782;2023-04-27T02:18:29;101730.03;;;2.66;100.00
9257;BME280;4665;51.368;6.782;2023-04-27T02:20:56;101740.41;;;2.69;100.00
9257;BME280;4665;51.368;6.782;2023-04-27T02:23:22;101728.19;;;2.68;100.00
9257;BME280;4665;51.368;6.782;2023-04-27T02:25:47;101731.06;;;2.63;100.00
9257;BME280;4665;51.368;6.782;2023-04-27T02:28:13;101726.72;;;2.62;100.00
9257;BME280;4665;51.368;6.782;2023-04-27T02:30:39;101727.66;;;2.61;100.00
9257;BME280;4665;51.368;6.782;2023-04-27T02:33:04;101725.25;;;2.57;100.00
9257;BME280;4665;51.368;6.782;2023-04-27T02:35:29;101723.72;;;2.52;100.00
9257;BME280;4665;51.368;6.782;2023-04-27T02:37:57;101724.59;;;2.53;100.00
9257;BME280;4665;51.368;6.782;2023-04-27T02:40:24;101725.56;;;2.50;100.00
9257;BME280;4665;51.368;6.782;2023-04-27T02:42:49;101727.69;;;2.44;100.00
9257;BME280;4665;51.368;6.782;2023-04-27T02:45:15;101729.78;;;2.37;100.00
9257;BME280;4665;51.368;6.782;2023-04-27T02:47:41;101722.19;;;2.31;100.00
9257;BME280;4665;51.368;6.782;2023-04-27T02:50:07;101728.22;;;2.33;100.00
9257;BME280;4665;51.368;6.782;2023-04-27T02:52:32;101731.94;;;2.29;100.00
9257;BME280;4665;51.368;6.782;2023-04-27T02:54:58;101721.41;;;2.29;100.00
9257;BME280;4665;51.368;6.782;2023-04-27T02:57:23;101725.91;;;2.27;100.00
9257;BME280;4665;51.368;6.782;2023-04-27T02:59:50;101716.72;;;2.18;100.00
9257;BME280;4665;51.368;6.782;2023-04-27T03:02:15;101706.19;;;2.18;100.00
9257;BME280;4665;51.368;6.782;2023-04-27T03:04:40;101716.63;;;2.20;100.00
9257;BME280;4665;51.368;6.782;2023-04-27T03:07:07;101715.06;;;2.16;100.00
9257;BME280;4665;51.368;6.782;2023-04-27T03:09:33;101704.72;;;2.13;100.00
9257;BME280;4665;51.368;6.782;2023-04-27T03:11:58;101701.31;;;2.10;100.00
9257;BME280;4665;51.368;6.782;2023-04-27T03:14:23;101693.97;;;2.00;100.00
9257;BME280;4665;51.368;6.782;2023-04-27T03:16:49;101702.56;;;2.03;100.00
9257;BME280;4665;51.368;6.782;2023-04-27T03:19:15;101691.34;;;2.00;100.00
9257;BME280;4665;51.368;6.782;2023-04-27T03:21:40;101708.88;;;1.99;100.00
9257;BME280;4665;51.368;6.782;2023-04-27T03:24:06;101702.72;;;2.00;100.00
9257;BME280;4665;51.368;6.782;2023-04-27T03:26:31;101703.50;;;2.02;100.00
9257;BME280;4665;51.368;6.782;2023-04-27T03:28:57;101713.84;;;2.05;100.00
9257;BME280;4665;51.368;6.782;2023-04-27T03:31:22;101709.44;;;2.06;100.00
9257;BME280;4665;51.368;6.782;2023-04-27T03:33:48;101716.53;;;2.04;100.00
9257;BME280;4665;51.368;6.782;2023-04-27T03:36:13;101715.41;;;2.09;100.00
9257;BME280;4665;51.368;6.782;2023-04-27T03:38:39;101716.25;;;2.10;100.00
9257;BME280;4665;51.368;6.782;2023-04-27T03:41:04;101715.41;;;2.09;100.00
9257;BME280;4665;51.368;6.782;2023-04-27T03:43:30;101719.72;;;2.10;100.00
9257;BME280;4665;51.368;6.782;2023-04-27T03:45:55;101719.56;;;2.14;100.00
9257;BME280;4665;51.368;6.782;2023-04-27T03:48:21;101720.31;;;2.16;100.00
9257;BME280;4665;51.368;6.782;2023-04-27T03:50:47;101725.53;;;2.17;100.00
9257;BME280;4665;51.368;6.782;2023-04-27T03:53:13;101727.31;;;2.17;100.00
9257;BME280;4665;51.368;6.782;2023-04-27T03:55:42;101727.25;;;2.18;100.00
9257;BME280;4665;51.368;6.782;2023-04-27T03:58:08;101720.19;;;2.19;100.00
9257;BME280;4665;51.368;6.782;2023-04-27T04:00:38;101724.69;;;2.17;100.00
9257;BME280;4665;51.368;6.782;2023-04-27T04:03:04;101729.16;;;2.15;100.00
9257;BME280;4665;51.368;6.782;2023-04-27T04:05:30;101730.72;;;2.19;100.00
9257;BME280;4665;51.368;6.782;2023-04-27T04:07:59;101724.59;;;2.18;100.00
9257;BME280;4665;51.368;6.782;2023-04-27T04:10:24;101733.34;;;2.19;100.00
9257;BME280;4665;51.368;6.782;2023-04-27T04:12:51;101741.06;;;2.22;100.00
9257;BME280;4665;51.368;6.782;2023-04-27T04:15:16;101746.16;;;2.25;100.00
9257;BME280;4665;51.368;6.782;2023-04-27T04:17:43;101748.56;;;2.29;100.00
9257;BME280;4665;51.368;6.782;2023-04-27T04:20:09;101745.00;;;2.30;100.00
9257;BME280;4665;51.368;6.782;2023-04-27T04:22:36;101742.53;;;2.27;100.00
9257;BME280;4665;51.368;6.782;2023-04-27T04:25:02;101748.50;;;2.31;100.00
9257;BME280;4665;51.368;6.782;2023-04-27T04:27:28;101746.88;;;2.28;100.00
9257;BME280;4665;51.368;6.782;2023-04-27T04:29:53;101743.41;;;2.28;100.00
9257;BME280;4665;51.368;6.782;2023-04-27T04:32:19;101744.06;;;2.31;100.00
9257;BME280;4665;51.368;6.782;2023-04-27T04:34:50;101741.53;;;2.30;100.00
9257;BME280;4665;51.368;6.782;2023-04-27T04:37:15;101745.25;;;2.26;100.00
9257;BME280;4665;51.368;6.782;2023-04-27T04:39:43;101742.53;;;2.27;100.00
9257;BME280;4665;51.368;6.782;2023-04-27T04:42:09;101750.34;;;2.29;100.00
9257;BME280;4665;51.368;6.782;2023-04-27T04:44:34;101750.09;;;2.34;100.00
9257;BME280;4665;51.368;6.782;2023-04-27T04:47:00;101749.25;;;2.33;100.00
9257;BME280;4665;51.368;6.782;2023-04-27T04:49:26;101757.75;;;2.38;100.00
9257;BME280;4665;51.368;6.782;2023-04-27T04:51:51;101755.19;;;2.37;100.00
9257;BME280;4665;51.368;6.782;2023-04-27T04:54:17;101749.88;;;2.38;100.00
9257;BME280;4665;51.368;6.782;2023-04-27T04:56:42;101747.84;;;2.43;100.00
9257;BME280;4665;51.368;6.782;2023-04-27T04:59:08;101758.16;;;2.48;100.00
9257;BME280;4665;51.368;6.782;2023-04-27T05:01:33;101752.75;;;2.51;100.00
9257;BME280;4665;51.368;6.782;2023-04-27T05:03:59;101764.78;;;2.55;100.00
9257;BME280;4665;51.368;6.782;2023-04-27T05:06:24;101761.00;;;2.61;100.00
9257;BME280;4665;51.368;6.782;2023-04-27T05:08:50;101769.56;;;2.64;100.00
9257;BME280;4665;51.368;6.782;2023-04-27T05:11:23;101762.31;;;2.69;100.00
9257;BME280;4665;51.368;6.782;2023-04-27T05:13:48;101767.41;;;2.72;100.00
9257;BME280;4665;51.368;6.782;2023-04-27T05:16:14;101762.09;;;2.74;100.00
9257;BME280;4665;51.368;6.782;2023-04-27T05:18:39;101766.16;;;2.80;100.00
9257;BME280;4665;51.368;6.782;2023-04-27T05:21:15;101773.81;;;2.84;100.00
9257;BME280;4665;51.368;6.782;2023-04-27T05:23:41;101782.41;;;2.88;100.00
9257;BME280;4665;51.368;6.782;2023-04-27T05:26:14;101788.34;;;2.91;100.00
9257;BME280;4665;51.368;6.782;2023-04-27T05:28:40;101792.53;;;2.95;100.00
9257;BME280;4665;51.368;6.782;2023-04-27T05:31:06;101798.41;;;3.01;100.00
9257;BME280;4665;51.368;6.782;2023-04-27T05:33:32;101790.25;;;3.05;100.00
9257;BME280;4665;51.368;6.782;2023-04-27T05:35:58;101791.63;;;3.12;100.00
9257;BME280;4665;51.368;6.782;2023-04-27T05:38:24;101793.94;;;3.19;100.00
9257;BME280;4665;51.368;6.782;2023-04-27T05:40:55;101795.31;;;3.26;100.00
9257;BME280;4665;51.368;6.782;2023-04-27T05:43:21;101799.31;;;3.33;100.00
9257;BME280;4665;51.368;6.782;2023-04-27T05:45:46;101799.66;;;3.43;100.00
9257;BME280;4665;51.368;6.782;2023-04-27T05:48:12;101801.88;;;3.50;100.00
9257;BME280;4665;51.368;6.782;2023-04-27T05:50:38;101797.03;;;3.58;100.00
9257;BME280;4665;51.368;6.782;2023-04-27T05:53:04;101794.94;;;3.65;100.00
9257;BME280;4665;51.368;6.782;2023-04-27T05:55:30;101796.78;;;3.79;100.00
9257;BME280;4665;51.368;6.782;2023-04-27T05:57:55;101791.91;;;3.87;100.00
9257;BME280;4665;51.368;6.782;2023-04-27T06:00:21;101799.94;;;4.02;100.00
9257;BME280;4665;51.368;6.782;2023-04-27T06:02:47;101812.91;;;4.20;100.00
9257;BME280;4665;51.368;6.782;2023-04-27T06:05:12;101808.19;;;4.41;100.00
9257;BME280;4665;51.368;6.782;2023-04-27T06:07:38;101797.94;;;4.66;100.00
9257;BME280;4665;51.368;6.782;2023-04-27T06:10:04;101800.06;;;4.89;100.00
9257;BME280;4665;51.368;6.782;2023-04-27T06:12:30;101790.81;;;4.96;100.00
9257;BME280;4665;51.368;6.782;2023-04-27T06:14:56;101795.16;;;5.12;100.00
9257;BME280;4665;51.368;6.782;2023-04-27T06:17:22;101802.03;;;5.28;100.00
9257;BME280;4665;51.368;6.782;2023-04-27T06:19:47;101789.69;;;5.43;100.00
9257;BME280;4665;51.368;6.782;2023-04-27T06:22:13;101798.50;;;5.57;100.00
9257;BME280;4665;51.368;6.782;2023-04-27T06:24:38;101794.06;;;5.72;100.00
9257;BME280;4665;51.368;6.782;2023-04-27T06:27:03;101795.81;;;5.85;100.00
9257;BME280;4665;51.368;6.782;2023-04-27T06:29:30;101791.25;;;6.02;100.00
9257;BME280;4665;51.368;6.782;2023-04-27T06:31:55;101790.13;;;6.19;100.00
9257;BME280;4665;51.368;6.782;2023-04-27T06:34:21;101793.75;;;6.30;100.00
9257;BME280;4665;51.368;6.782;2023-04-27T06:37:10;101784.38;;;6.39;100.00
9257;BME280;4665;51.368;6.782;2023-04-27T06:39:35;101782.25;;;6.44;100.00
9257;BME280;4665;51.368;6.782;2023-04-27T06:42:02;101787.34;;;6.47;100.00
9257;BME280;4665;51.368;6.782;2023-04-27T06:44:31;101785.69;;;6.59;100.00
9257;BME280;4665;51.368;6.782;2023-04-27T06:46:56;101766.41;;;6.57;100.00
9257;BME280;4665;51.368;6.782;2023-04-27T06:49:21;101777.75;;;6.72;100.00
9257;BME280;4665;51.368;6.782;2023-04-27T06:51:47;101776.34;;;6.79;100.00
9257;BME280;4665;51.368;6.782;2023-04-27T06:54:13;101781.03;;;6.88;100.00
9257;BME280;4665;51.368;6.782;2023-04-27T06:56:38;101773.28;;;6.98;100.00
9257;BME280;4665;51.368;6.782;2023-04-27T06:59:04;101777.00;;;7.08;100.00
9257;BME280;4665;51.368;6.782;2023-04-27T07:01:29;101772.13;;;7.15;100.00
9257;BME280;4665;51.368;6.782;2023-04-27T07:03:55;101797.22;;;7.22;100.00
9257;BME280;4665;51.368;6.782;2023-04-27T07:06:21;101773.69;;;7.18;100.00
9257;BME280;4665;51.368;6.782;2023-04-27T07:08:47;101785.41;;;7.39;100.00
9257;BME280;4665;51.368;6.782;2023-04-27T07:11:12;101784.13;;;7.45;100.00
9257;BME280;4665;51.368;6.782;2023-04-27T07:13:37;101764.63;;;7.46;100.00
9257;BME280;4665;51.368;6.782;2023-04-27T07:16:03;101783.69;;;7.51;100.00
9257;BME280;4665;51.368;6.782;2023-04-27T07:18:28;101777.09;;;7.56;100.00
9257;BME280;4665;51.368;6.782;2023-04-27T07:20:54;101765.13;;;7.51;100.00
9257;BME280;4665;51.368;6.782;2023-04-27T07:23:22;101773.16;;;7.62;100.00
9257;BME280;4665;51.368;6.782;2023-04-27T07:25:47;101776.16;;;7.57;100.00
9257;BME280;4665;51.368;6.782;2023-04-27T07:28:13;101774.31;;;7.71;100.00
9257;BME280;4665;51.368;6.782;2023-04-27T07:30:39;101778.31;;;7.76;100.00
9257;BME280;4665;51.368;6.782;2023-04-27T07:33:06;101784.25;;;7.80;100.00
9257;BME280;4665;51.368;6.782;2023-04-27T07:35:31;101789.00;;;7.75;100.00
9257;BME280;4665;51.368;6.782;2023-04-27T07:37:58;101786.44;;;7.86;100.00
9257;BME280;4665;51.368;6.782;2023-04-27T07:40:26;101777.41;;;7.89;100.00
9257;BME280;4665;51.368;6.782;2023-04-27T07:42:52;101791.13;;;8.07;100.00
9257;BME280;4665;51.368;6.782;2023-04-27T07:45:18;101789.22;;;8.09;100.00
9257;BME280;4665;51.368;6.782;2023-04-27T07:47:43;101794.66;;;8.18;100.00
9257;BME280;4665;51.368;6.782;2023-04-27T07:50:09;101784.69;;;8.22;100.00
9257;BME280;4665;51.368;6.782;2023-04-27T07:52:35;101785.91;;;8.29;100.00
9257;BME280;4665;51.368;6.782;2023-04-27T07:55:01;101785.63;;;8.45;100.00
9257;BME280;4665;51.368;6.782;2023-04-27T07:57:27;101782.78;;;8.59;100.00
9257;BME280;4665;51.368;6.782;2023-04-27T07:59:53;101785.09;;;8.64;100.00
9257;BME280;4665;51.368;6.782;2023-04-27T08:02:18;101790.41;;;8.64;100.00
9257;BME280;4665;51.368;6.782;2023-04-27T08:04:43;101789.78;;;8.72;100.00
9257;BME280;4665;51.368;6.782;2023-04-27T08:07:09;101787.91;;;8.85;100.00
9257;BME280;4665;51.368;6.782;2023-04-27T08:09:34;101778.38;;;8.94;100.00
9257;BME280;4665;51.368;6.782;2023-04-27T08:12:00;101774.50;;;9.09;100.00
9257;BME280;4665;51.368;6.782;2023-04-27T08:14:27;101773.75;;;9.18;100.00
9257;BME280;4665;51.368;6.782;2023-04-27T08:16:52;101773.53;;;9.21;100.00
9257;BME280;4665;51.368;6.782;2023-04-27T08:19:18;101762.66;;;9.24;100.00
9257;BME280;4665;51.368;6.782;2023-04-27T08:21:43;101763.75;;;9.22;100.00
9257;BME280;4665;51.368;6.782;2023-04-27T08:24:08;101765.69;;;9.20;100.00
9257;BME280;4665;51.368;6.782;2023-04-27T08:26:34;101775.69;;;9.27;100.00
9257;BME280;4665;51.368;6.782;2023-04-27T08:29:00;101752.38;;;9.31;100.00
9257;BME280;4665;51.368;6.782;2023-04-27T08:31:26;101760.81;;;9.47;93.22
9257;BME280;4665;51.368;6.782;2023-04-27T08:33:52;101751.84;;;9.48;100.00
9257;BME280;4665;51.368;6.782;2023-04-27T08:36:19;101756.31;;;9.59;100.00
9257;BME280;4665;51.368;6.782;2023-04-27T08:38:45;101748.06;;;9.62;94.89
9257;BME280;4665;51.368;6.782;2023-04-27T08:41:17;101749.16;;;9.71;97.96
9257;BME280;4665;51.368;6.782;2023-04-27T08:43:49;101746.84;;;9.78;95.00
9257;BME280;4665;51.368;6.782;2023-04-27T08:46:22;101748.13;;;9.83;100.00
9257;BME280;4665;51.368;6.782;2023-04-27T08:48:49;101742.06;;;9.93;100.00
9257;BME280;4665;51.368;6.782;2023-04-27T08:51:16;101737.38;;;9.85;100.00
9257;BME280;4665;51.368;6.782;2023-04-27T08:53:54;101751.09;;;10.01;100.00
9257;BME280;4665;51.368;6.782;2023-04-27T08:56:21;101745.50;;;10.04;100.00
9257;BME280;4665;51.368;6.782;2023-04-27T08:58:48;101754.81;;;10.10;96.61
9257;BME280;4665;51.368;6.782;2023-04-27T09:01:14;101756.13;;;10.16;92.38
9257;BME280;4665;51.368;6.782;2023-04-27T09:03:40;101749.69;;;10.18;88.78
9257;BME280;4665;51.368;6.782;2023-04-27T09:06:05;101744.50;;;10.17;89.20
9257;BME280;4665;51.368;6.782;2023-04-27T09:08:46;101750.06;;;10.14;97.14
9257;BME280;4665;51.368;6.782;2023-04-27T09:11:13;101745.59;;;10.14;85.44
9257;BME280;4665;51.368;6.782;2023-04-27T09:13:41;101742.47;;;10.09;76.56
9257;BME280;4665;51.368;6.782;2023-04-27T09:16:09;101743.06;;;10.13;81.81
9257;BME280;4665;51.368;6.782;2023-04-27T09:18:35;101727.44;;;10.19;83.98
9257;BME280;4665;51.368;6.782;2023-04-27T09:21:02;101742.31;;;10.22;80.00
9257;BME280;4665;51.368;6.782;2023-04-27T09:23:38;101732.00;;;10.28;100.00
9257;BME280;4665;51.368;6.782;2023-04-27T09:26:06;101734.47;;;10.41;81.83
9257;BME280;4665;51.368;6.782;2023-04-27T09:28:33;101732.19;;;10.58;78.36
9257;BME280;4665;51.368;6.782;2023-04-27T09:31:01;101735.44;;;10.61;80.52
9257;BME280;4665;51.368;6.782;2023-04-27T09:33:29;101732.00;;;10.49;75.05
9257;BME280;4665;51.368;6.782;2023-04-27T09:35:56;101732.00;;;10.49;83.65
9257;BME280;4665;51.368;6.782;2023-04-27T09:38:22;101724.59;;;10.53;69.35
9257;BME280;4665;51.368;6.782;2023-04-27T09:40:49;101733.88;;;10.59;69.99
9257;BME280;4665;51.368;6.782;2023-04-27T09:43:15;101734.84;;;10.58;62.02
9257;BME280;4665;51.368;6.782;2023-04-27T09:45:41;101726.78;;;10.69;72.88
9257;BME280;4665;51.368;6.782;2023-04-27T09:48:07;101733.72;;;10.81;68.35
9257;BME280;4665;51.368;6.782;2023-04-27T09:50:38;101731.78;;;10.93;72.09
9257;BME280;4665;51.368;6.782;2023-04-27T09:53:26;101731.63;;;10.85;65.26
9257;BME280;4665;51.368;6.782;2023-04-27T09:56:15;101722.41;;;10.89;71.42
9257;BME280;4665;51.368;6.782;2023-04-27T10:01:39;101707.19;;;10.80;73.51
9257;BME280;4665;51.368;6.782;2023-04-27T10:07:02;101711.84;;;10.87;73.19
9257;BME280;4665;51.368;6.782;2023-04-27T10:09:45;101720.16;;;10.94;77.88
9257;BME280;4665;51.368;6.782;2023-04-27T10:12:21;101704.97;;;10.85;69.26
9257;BME280;4665;51.368;6.782;2023-04-27T10:17:12;101706.97;;;10.92;69.52
9257;BME280;4665;51.368;6.782;2023-04-27T10:19:38;101703.34;;;10.93;68.75
9257;BME280;4665;51.368;6.782;2023-04-27T10:22:03;101705.84;;;10.95;67.00
9257;BME280;4665;51.368;6.782;2023-04-27T10:24:37;101693.81;;;11.01;72.06
9257;BME280;4665;51.368;6.782;2023-04-27T10:27:08;101691.72;;;11.04;72.45
9257;BME280;4665;51.368;6.782;2023-04-27T10:29:37;101685.81;;;11.01;71.30
9257;BME280;4665;51.368;6.782;2023-04-27T10:34:34;101686.47;;;10.93;67.35
9257;BME280;4665;51.368;6.782;2023-04-27T10:37:10;101695.78;;;10.99;69.14
9257;BME280;4665;51.368;6.782;2023-04-27T10:39:39;101687.78;;;10.99;66.13
9257;BME280;4665;51.368;6.782;2023-04-27T10:42:05;101686.78;;;11.00;67.45
9257;BME280;4665;51.368;6.782;2023-04-27T10:44:32;101684.28;;;10.98;64.79
9257;BME280;4665;51.368;6.782;2023-04-27T10:47:15;101684.28;;;10.98;64.21
9257;BME280;4665;51.368;6.782;2023-04-27T10:49:41;101679.06;;;10.97;68.17
9257;BME280;4665;51.368;6.782;2023-04-27T10:52:07;101675.00;;;11.02;64.53
9257;BME280;4665;51.368;6.782;2023-04-27T10:54:34;101682.47;;;11.08;64.08
9257;BME280;4665;51.368;6.782;2023-04-27T10:57:07;101687.09;;;11.16;68.22
9257;BME280;4665;51.368;6.782;2023-04-27T10:59:35;101682.47;;;11.18;59.85
9257;BME280;4665;51.368;6.782;2023-04-27T11:02:01;101683.09;;;11.31;65.36
9257;BME280;4665;51.368;6.782;2023-04-27T11:04:38;101672.28;;;11.43;60.55
9257;BME280;4665;51.368;6.782;2023-04-27T11:07:05;101672.00;;;11.46;59.24
9257;BME280;4665;51.368;6.782;2023-04-27T11:09:34;101673.00;;;11.54;57.47
9257;BME280;4665;51.368;6.782;2023-04-27T11:11:59;101668.63;;;11.44;55.65
9257;BME280;4665;51.368;6.782;2023-04-27T11:14:25;101672.84;;;11.46;55.65
9257;BME280;4665;51.368;6.782;2023-04-27T11:16:51;101671.41;;;11.32;57.24
9257;BME280;4665;51.368;6.782;2023-04-27T11:19:17;101675.50;;;11.36;57.75
9257;BME280;4665;51.368;6.782;2023-04-27T11:21:42;101669.03;;;11.39;59.11
9257;BME280;4665;51.368;6.782;2023-04-27T11:24:08;101667.09;;;11.51;59.88
9257;BME280;4665;51.368;6.782;2023-04-27T11:26:34;101666.13;;;11.52;60.18
9257;BME280;4665;51.368;6.782;2023-04-27T11:29:04;101659.66;;;11.54;59.57
9257;BME280;4665;51.368;6.782;2023-04-27T11:31:40;101653.63;;;11.62;59.91
9257;BME280;4665;51.368;6.782;2023-04-27T11:34:08;101653.06;;;11.68;57.73
9257;BME280;4665;51.368;6.782;2023-04-27T11:36:33;101648.00;;;11.75;60.65
9257;BME280;4665;51.368;6.782;2023-04-27T11:39:00;101647.19;;;11.74;55.25
9257;BME280;4665;51.368;6.782;2023-04-27T11:41:33;101636.75;;;11.71;56.93
9257;BME280;4665;51.368;6.782;2023-04-27T11:44:06;101643.22;;;11.78;55.82
9257;BME280;4665;51.368;6.782;2023-04-27T11:46:34;101639.84;;;11.76;54.25
9257;BME280;4665;51.368;6.782;2023-04-27T11:49:04;101636.75;;;11.81;49.05
9257;BME280;4665;51.368;6.782;2023-04-27T11:51:31;101636.38;;;11.95;50.88
9257;BME280;4665;51.368;6.782;2023-04-27T11:54:06;101639.97;;;12.04;52.43
9257;BME280;4665;51.368;6.782;2023-04-27T11:56:37;101635.94;;;12.00;50.73
9257;BME280;4665;51.368;6.782;2023-04-27T11:59:03;101628.09;;;11.89;50.25
9257;BME280;4665;51.368;6.782;2023-04-27T12:01:32;101632.16;;;11.93;50.46
9257;BME280;4665;51.368;6.782;2023-04-27T12:03:59;101618.25;;;11.89;51.59
9257;BME280;4665;51.368;6.782;2023-04-27T12:06:26;101617.94;;;11.92;48.57
9257;BME280;4665;51.368;6.782;2023-04-27T12:08:54;101616.81;;;12.05;53.67
9257;BME280;4665;51.368;6.782;2023-04-27T12:11:21;101610.31;;;12.17;52.45
9257;BME280;4665;51.368;6.782;2023-04-27T12:13:46;101608.34;;;12.19;50.25
9257;BME280;4665;51.368;6.782;2023-04-27T12:16:12;101607.31;;;12.30;52.21
9257;BME280;4665;51.368;6.782;2023-04-27T12:18:37;101607.31;;;12.30;53.00
9257;BME280;4665;51.368;6.782;2023-04-27T12:21:03;101599.59;;;12.27;51.11
9257;BME280;4665;51.368;6.782;2023-04-27T12:23:32;101609.09;;;12.39;52.29
9257;BME280;4665;51.368;6.782;2023-04-27T12:25:57;101616.41;;;12.37;50.12
9257;BME280;4665;51.368;6.782;2023-04-27T12:28:22;101584.41;;;12.27;52.35
9257;BME280;4665;51.368;6.782;2023-04-27T12:30:48;101597.53;;;12.48;49.89
9257;BME280;4665;51.368;6.782;2023-04-27T12:33:13;101578.53;;;12.24;47.29
9257;BME280;4665;51.368;6.782;2023-04-27T12:35:39;101585.41;;;12.26;48.57
9257;BME280;4665;51.368;6.782;2023-04-27T12:38:04;101589.25;;;12.41;52.78
9257;BME280;4665;51.368;6.782;2023-04-27T12:40:29;101584.81;;;12.60;50.74
9257;BME280;4665;51.368;6.782;2023-04-27T12:42:55;101582.84;;;12.62;50.17
9257;BME280;4665;51.368;6.782;2023-04-27T12:45:20;101590.13;;;12.70;51.45
9257;BME280;4665;51.368;6.782;2023-04-27T12:47:46;101585.56;;;12.80;48.69
9257;BME280;4665;51.368;6.782;2023-04-27T12:50:12;101562.50;;;12.79;50.52
9257;BME280;4665;51.368;6.782;2023-04-27T12:52:37;101577.09;;;12.84;47.95
9257;BME280;4665;51.368;6.782;2023-04-27T12:55:03;101583.06;;;12.96;45.64
9257;BME280;4665;51.368;6.782;2023-04-27T12:57:30;101582.47;;;13.02;47.46
9257;BME280;4665;51.368;6.782;2023-04-27T12:59:55;101591.47;;;13.01;48.61
9257;BME280;4665;51.368;6.782;2023-04-27T13:02:20;101588.97;;;13.00;47.11
9257;BME280;4665;51.368;6.782;2023-04-27T13:04:46;101580.41;;;12.96;48.56
9257;BME280;4665;51.368;6.782;2023-04-27T13:07:11;101583.53;;;12.92;44.92
9257;BME280;4665;51.368;6.782;2023-04-27T13:09:37;101574.41;;;12.84;45.60
9257;BME280;4665;51.368;6.782;2023-04-27T13:12:03;101583.38;;;12.93;45.56
9257;BME280;4665;51.368;6.782;2023-04-27T13:14:28;101581.69;;;12.92;47.44
9257;BME280;4665;51.368;6.782;2023-04-27T13:16:54;101578.41;;;12.98;49.83
9257;BME280;4665;51.368;6.782;2023-04-27T13:19:19;101575.91;;;13.15;45.25